createdAt,value
2024-01-11T00:00:39.638Z,80498.22
2024-01-11T00:02:21.044Z,80496.63
2024-01-11T00:04:02.407Z,80497.84
2024-01-11T00:05:43.910Z,80485.41
2024-01-11T00:07:25.321Z,80488.28
2024-01-11T00:09:06.686Z,80486.97
2024-01-11T00:10:48.021Z,80475.19
2024-01-11T00:12:29.395Z,80483.28
2024-01-11T00:14:10.775Z,80484.72
2024-01-11T00:15:52.187Z,80476.34
2024-01-11T00:17:33.688Z,80482.78
2024-01-11T00:19:15.238Z,80484.19
2024-01-11T00:20:56.651Z,80477.66
2024-01-11T00:22:37.997Z,80476.75
2024-01-11T00:24:19.342Z,80479.88
2024-01-11T00:26:00.938Z,80481.19
2024-01-11T00:27:42.341Z,80483.78
2024-01-11T00:29:23.735Z,80476.63
2024-01-11T00:31:05.165Z,80482.84
2024-01-11T00:32:46.715Z,80476.94
2024-01-11T00:34:28.156Z,80483.13
2024-01-11T00:36:09.669Z,80469.19
2024-01-11T00:37:51.475Z,80479.97
2024-01-11T00:39:32.899Z,80482.69
2024-01-11T00:41:14.858Z,80479.09
2024-01-11T00:42:56.218Z,80480.19
2024-01-11T00:44:37.670Z,80480.19
2024-01-11T00:46:19.065Z,80483.06
2024-01-11T00:48:00.544Z,80477.69
2024-01-11T00:49:42.119Z,80488.84
2024-01-11T00:51:23.485Z,80486.09
2024-01-11T00:53:04.893Z,80482.97
2024-01-11T00:54:46.263Z,80483.00
2024-01-11T00:56:27.623Z,80480.63
2024-01-11T00:58:09.039Z,80478.56
2024-01-11T00:59:50.452Z,80479.22
2024-01-11T01:01:31.817Z,80479.41
2024-01-11T01:03:13.186Z,80490.84
2024-01-11T01:04:54.580Z,80481.09
2024-01-11T01:06:36.050Z,80492.88
2024-01-11T01:08:17.509Z,80489.56
2024-01-11T01:09:58.871Z,80495.59
2024-01-11T01:11:40.248Z,80490.16
2024-01-11T01:13:21.618Z,80496.94
2024-01-11T01:15:03.014Z,80498.97
2024-01-11T01:16:44.376Z,80499.59
2024-01-11T01:18:25.802Z,80501.06
2024-01-11T01:20:07.241Z,80507.34
2024-01-11T01:21:48.624Z,80516.31
2024-01-11T01:23:30.029Z,80505.09
2024-01-11T01:25:11.505Z,80510.38
2024-01-11T01:26:52.935Z,80502.78
2024-01-11T01:28:34.308Z,80513.56
2024-01-11T01:30:16.403Z,80506.72
2024-01-11T01:31:58.029Z,80504.84
2024-01-11T01:33:39.561Z,80513.41
2024-01-11T01:35:21.017Z,80513.41
2024-01-11T01:37:02.398Z,80514.09
2024-01-11T01:38:43.878Z,80508.84
2024-01-11T01:40:25.288Z,80513.00
2024-01-11T01:42:06.632Z,80509.09
2024-01-11T01:43:47.981Z,80514.88
2024-01-11T01:45:29.415Z,80517.41
2024-01-11T01:47:10.799Z,80510.47
2024-01-11T01:48:52.265Z,80514.09
2024-01-11T01:50:33.762Z,80514.63
2024-01-11T01:52:15.164Z,80520.78
2024-01-11T01:53:56.523Z,80523.13
2024-01-11T01:55:37.941Z,80522.63
2024-01-11T01:57:19.314Z,80514.22
2024-01-11T01:59:00.659Z,80520.78
2024-01-11T02:00:42.096Z,80520.25
2024-01-11T02:02:23.510Z,80525.97
2024-01-11T02:04:04.904Z,80525.19
2024-01-11T02:05:46.461Z,80524.78
2024-01-11T02:07:27.867Z,80527.72
2024-01-11T02:09:09.224Z,80525.03
2024-01-11T02:10:50.604Z,80522.31
2024-01-11T02:12:31.945Z,80525.84
2024-01-11T02:14:13.334Z,80520.16
2024-01-11T02:15:54.722Z,80516.34
2024-01-11T02:17:36.213Z,80517.28
2024-01-11T02:19:17.641Z,80529.75
2024-01-11T02:20:59.070Z,80529.19
2024-01-11T02:22:40.457Z,80523.69
2024-01-11T02:24:21.849Z,80524.97
2024-01-11T02:26:03.276Z,80524.16
2024-01-11T02:27:44.696Z,80523.44
2024-01-11T02:29:26.063Z,80524.75
2024-01-11T02:31:07.660Z,80519.41
2024-01-11T02:32:49.205Z,80519.16
2024-01-11T02:34:30.858Z,80523.72
2024-01-11T02:36:12.388Z,80519.91
2024-01-11T02:37:53.817Z,80512.84
2024-01-11T02:39:35.224Z,80512.94
2024-01-11T02:41:16.630Z,80505.94
2024-01-11T02:42:58.034Z,80505.25
2024-01-11T02:44:39.507Z,80508.03
2024-01-11T02:46:20.852Z,80502.81
2024-01-11T02:48:02.381Z,80497.56
2024-01-11T02:49:43.794Z,80500.16
2024-01-11T02:51:25.182Z,80500.94
2024-01-11T02:53:06.606Z,80499.16
2024-01-11T02:54:48.114Z,80504.72
2024-01-11T02:56:29.550Z,80495.38
2024-01-11T02:58:10.924Z,80492.81
2024-01-11T02:59:52.316Z,80481.28
2024-01-11T03:01:33.704Z,80478.38
2024-01-11T03:03:15.141Z,80477.28
2024-01-11T03:04:56.577Z,80477.09
2024-01-11T03:06:38.204Z,80478.75
2024-01-11T03:08:19.730Z,80486.31
2024-01-11T03:10:01.130Z,80485.19
2024-01-11T03:11:42.591Z,80472.38
2024-01-11T03:13:24.003Z,80471.94
2024-01-11T03:15:05.353Z,80478.56
2024-01-11T03:16:46.743Z,80480.81
2024-01-11T03:18:28.250Z,80474.88
2024-01-11T03:20:09.759Z,80477.44
2024-01-11T03:21:51.191Z,80470.94
2024-01-11T03:23:32.643Z,80480.75
2024-01-11T03:25:14.067Z,80477.97
2024-01-11T03:26:55.457Z,80478.69
2024-01-11T03:28:36.815Z,80482.69
2024-01-11T03:30:18.313Z,80484.47
2024-01-11T03:31:59.745Z,80489.66
2024-01-11T03:33:41.222Z,80483.69
2024-01-11T03:35:22.661Z,80484.75
2024-01-11T03:37:04.039Z,80491.19
2024-01-11T03:38:47.148Z,80486.00
2024-01-11T03:40:29.680Z,80491.31
2024-01-11T03:42:11.057Z,80491.56
2024-01-11T03:43:52.395Z,80492.16
2024-01-11T03:45:33.746Z,80495.63
2024-01-11T03:47:15.157Z,80496.50
2024-01-11T03:48:56.741Z,80496.13
2024-01-11T03:50:38.262Z,80501.75
2024-01-11T03:52:19.748Z,80499.47
2024-01-11T03:54:01.094Z,80506.09
2024-01-11T03:55:42.466Z,80501.69
2024-01-11T03:57:23.851Z,80500.03
2024-01-11T03:59:05.241Z,80500.97
2024-01-11T04:00:46.715Z,80498.16
2024-01-11T04:02:28.152Z,80501.16
2024-01-11T04:04:09.597Z,80500.56
2024-01-11T04:05:51.151Z,80499.78
2024-01-11T04:07:32.582Z,80505.00
2024-01-11T04:09:13.944Z,80495.47
2024-01-11T04:10:55.419Z,80497.59
2024-01-11T04:12:56.800Z,80497.16
2024-01-11T04:14:58.139Z,80488.63
2024-01-11T04:16:39.503Z,80490.56
2024-01-11T04:18:20.972Z,80486.28
2024-01-11T04:20:02.578Z,80493.75
2024-01-11T04:21:43.994Z,80497.16
2024-01-11T04:23:25.431Z,80488.66
2024-01-11T04:25:06.817Z,80487.13
2024-01-11T04:26:48.251Z,80487.31
2024-01-11T04:28:29.618Z,80481.66
2024-01-11T04:30:10.987Z,80480.13
2024-01-11T04:31:52.418Z,80474.72
2024-01-11T04:33:33.857Z,80483.00
2024-01-11T04:35:15.299Z,80483.59
2024-01-11T04:36:56.714Z,80479.13
2024-01-11T04:38:38.140Z,80481.69
2024-01-11T04:40:19.543Z,80474.25
2024-01-11T04:42:01.522Z,80477.59
2024-01-11T04:43:42.897Z,80473.63
2024-01-11T04:45:24.269Z,80474.59
2024-01-11T04:47:05.754Z,80473.06
2024-01-11T04:48:47.302Z,80464.59
2024-01-11T04:50:31.506Z,80472.44
2024-01-11T04:52:12.899Z,80470.63
2024-01-11T04:53:54.269Z,80467.66
2024-01-11T04:55:35.634Z,80469.97
2024-01-11T04:57:17.088Z,80461.88
2024-01-11T04:58:58.468Z,80464.63
2024-01-11T05:00:39.860Z,80463.47
2024-01-11T05:02:21.333Z,80470.75
2024-01-11T05:04:02.843Z,80464.97
2024-01-11T05:05:44.401Z,80468.44
2024-01-11T05:07:25.817Z,80468.13
2024-01-11T05:09:07.207Z,80467.25
2024-01-11T05:10:48.620Z,80464.69
2024-01-11T05:12:29.986Z,80470.00
2024-01-11T05:14:11.397Z,80458.44
2024-01-11T05:15:52.808Z,80453.03
2024-01-11T05:17:34.235Z,80457.28
2024-01-11T05:19:15.744Z,80452.88
2024-01-11T05:20:57.152Z,80452.47
2024-01-11T05:22:38.515Z,80457.44
2024-01-11T05:24:19.903Z,80453.72
2024-01-11T05:26:01.417Z,80451.72
2024-01-11T05:27:42.765Z,80460.63
2024-01-11T05:29:24.119Z,80455.09
2024-01-11T05:31:05.589Z,80455.50
2024-01-11T05:32:47.074Z,80452.69
2024-01-11T05:34:28.774Z,80449.00
2024-01-11T05:36:10.180Z,80449.38
2024-01-11T05:37:51.515Z,80451.59
2024-01-11T05:39:32.931Z,80457.38
2024-01-11T05:41:14.398Z,80453.47
2024-01-11T05:42:55.791Z,80454.06
2024-01-11T05:44:37.309Z,80462.53
2024-01-11T05:46:18.727Z,80463.81
2024-01-11T05:48:00.141Z,80475.66
2024-01-11T05:49:41.603Z,80468.69
2024-01-11T05:51:23.108Z,80469.91
2024-01-11T05:53:04.487Z,80466.81
2024-01-11T05:54:45.851Z,80469.81
2024-01-11T05:56:27.288Z,80464.47
2024-01-11T05:58:08.662Z,80462.81
2024-01-11T05:59:50.024Z,80464.03
2024-01-11T06:01:31.411Z,80469.38
2024-01-11T06:03:12.759Z,80471.78
2024-01-11T06:04:54.146Z,80474.25
2024-01-11T06:06:35.569Z,80471.91
2024-01-11T06:08:16.972Z,80476.06
2024-01-11T06:09:58.355Z,80473.69
2024-01-11T06:11:39.836Z,80476.09
2024-01-11T06:13:21.238Z,80471.78
2024-01-11T06:15:02.566Z,80482.38
2024-01-11T06:16:43.927Z,80483.31
2024-01-11T06:18:25.347Z,80485.94
2024-01-11T06:20:06.808Z,80492.66
2024-01-11T06:21:48.316Z,80490.41
2024-01-11T06:23:29.742Z,80488.50
2024-01-11T06:25:11.119Z,80481.97
2024-01-11T06:26:52.481Z,80492.16
2024-01-11T06:28:36.129Z,80488.41
2024-01-11T06:30:17.970Z,80488.53
2024-01-11T06:31:59.451Z,80489.72
2024-01-11T06:33:40.865Z,80494.53
2024-01-11T06:35:22.264Z,80493.34
2024-01-11T06:37:03.648Z,80488.34
2024-01-11T06:38:45.130Z,80487.06
2024-01-11T06:40:26.490Z,80488.22
2024-01-11T06:42:07.875Z,80495.22
2024-01-11T06:43:49.200Z,80497.22
2024-01-11T06:45:30.556Z,80488.00
2024-01-11T06:47:11.949Z,80489.72
2024-01-11T06:48:53.660Z,80491.34
2024-01-11T06:50:35.174Z,80499.78
2024-01-11T06:52:16.569Z,80498.41
2024-01-11T06:53:57.898Z,80507.13
2024-01-11T06:55:39.471Z,80504.09
2024-01-11T06:57:20.957Z,80497.16
2024-01-11T06:59:02.367Z,80493.19
2024-01-11T07:00:43.772Z,80489.34
2024-01-11T07:02:25.340Z,80496.41
2024-01-11T07:04:06.761Z,80493.06
2024-01-11T07:05:48.459Z,80498.00
2024-01-11T07:07:29.958Z,80485.16
2024-01-11T07:09:11.337Z,80489.06
2024-01-11T07:10:52.713Z,80489.72
2024-01-11T07:12:34.109Z,80485.72
2024-01-11T07:14:15.478Z,80491.06
2024-01-11T07:15:56.860Z,80490.66
2024-01-11T07:17:38.332Z,80488.94
2024-01-11T07:19:19.821Z,80484.63
2024-01-11T07:21:01.236Z,80482.91
2024-01-11T07:22:42.905Z,80483.06
2024-01-11T07:24:24.306Z,80488.78
2024-01-11T07:26:05.708Z,80486.28
2024-01-11T07:27:47.043Z,80483.44
2024-01-11T07:29:28.465Z,80483.63
2024-01-11T07:31:09.893Z,80475.00
2024-01-11T07:32:51.386Z,80477.66
2024-01-11T07:34:32.893Z,80479.22
2024-01-11T07:36:14.325Z,80481.28
2024-01-11T07:37:55.761Z,80479.63
2024-01-11T07:39:37.133Z,80485.88
2024-01-11T07:41:18.518Z,80478.84
2024-01-11T07:42:59.859Z,80483.53
2024-01-11T07:44:41.254Z,80482.94
2024-01-11T07:46:32.437Z,80488.31
2024-01-11T07:48:17.973Z,80484.81
2024-01-11T07:49:59.499Z,80498.56
2024-01-11T07:51:40.907Z,80504.56
2024-01-11T07:53:22.311Z,80503.34
2024-01-11T07:55:03.764Z,80505.84
2024-01-11T07:56:45.175Z,80514.19
2024-01-11T07:58:26.555Z,80512.31
2024-01-11T08:00:08.003Z,80506.44
2024-01-11T08:01:49.450Z,80504.16
2024-01-11T08:03:30.822Z,80504.50
2024-01-11T08:05:12.392Z,80507.50
2024-01-11T08:06:53.888Z,80502.00
2024-01-11T08:08:35.349Z,80511.25
2024-01-11T08:10:16.743Z,80510.06
2024-01-11T08:11:58.191Z,80507.00
2024-01-11T08:13:39.583Z,80512.06
2024-01-11T08:15:20.947Z,80513.66
2024-01-11T08:17:02.358Z,80510.16
2024-01-11T08:18:43.733Z,80510.25
2024-01-11T08:20:25.127Z,80515.75
2024-01-11T08:22:06.537Z,80514.03
2024-01-11T08:23:47.937Z,80512.47
2024-01-11T08:25:29.337Z,80509.00
2024-01-11T08:27:10.738Z,80511.34
2024-01-11T08:28:52.089Z,80511.94
2024-01-11T08:30:33.466Z,80518.84
2024-01-11T08:32:24.105Z,80520.53
2024-01-11T08:34:12.793Z,80525.09
2024-01-11T08:35:54.311Z,80534.84
2024-01-11T08:37:35.671Z,80526.94
2024-01-11T08:39:17.032Z,80524.53
2024-01-11T08:40:58.401Z,80531.66
2024-01-11T08:42:39.752Z,80531.00
2024-01-11T08:44:21.117Z,80530.22
2024-01-11T08:46:02.543Z,80525.13
2024-01-11T08:47:44.099Z,80538.34
2024-01-11T08:49:25.561Z,80540.09
2024-01-11T08:51:07.054Z,80531.75
2024-01-11T08:52:49.471Z,80532.25
2024-01-11T08:54:30.815Z,80531.00
2024-01-11T08:56:12.186Z,80533.72
2024-01-11T08:57:53.597Z,80531.88
2024-01-11T08:59:35.653Z,80530.78
2024-01-11T09:01:17.253Z,80530.38
2024-01-11T09:02:59.222Z,80539.00
2024-01-11T09:04:40.777Z,80538.91
2024-01-11T09:06:22.482Z,80531.81
2024-01-11T09:08:03.939Z,80528.78
2024-01-11T09:09:51.276Z,80533.66
2024-01-11T09:11:38.228Z,80529.75
2024-01-11T09:13:19.626Z,80523.03
2024-01-11T09:15:00.991Z,80530.78
2024-01-11T09:16:42.373Z,80527.06
2024-01-11T09:18:23.819Z,80522.38
2024-01-11T09:20:05.284Z,80526.97
2024-01-11T09:21:46.728Z,80526.06
2024-01-11T09:23:28.153Z,80527.94
2024-01-11T09:25:09.642Z,80531.44
2024-01-11T09:26:51.144Z,80533.03
2024-01-11T09:28:32.504Z,80534.34
2024-01-11T09:30:14.453Z,80536.19
2024-01-11T09:31:56.279Z,80535.28
2024-01-11T09:33:37.776Z,80532.38
2024-01-11T09:35:19.379Z,80530.56
2024-01-11T09:37:00.903Z,80523.28
2024-01-11T09:38:42.397Z,80528.25
2024-01-11T09:40:23.778Z,80520.94
2024-01-11T09:42:05.160Z,80526.91
2024-01-11T09:43:47.451Z,80510.81
2024-01-11T09:45:28.946Z,80507.25
2024-01-11T09:47:11.662Z,80507.53
2024-01-11T09:48:55.603Z,80505.16
2024-01-11T09:50:37.185Z,80498.03
2024-01-11T09:52:18.757Z,80497.34
2024-01-11T09:54:00.178Z,80493.38
2024-01-11T09:55:41.604Z,80493.09
2024-01-11T09:57:23.030Z,80489.44
2024-01-11T09:59:04.571Z,80488.22
2024-01-11T10:00:46.198Z,80488.78
2024-01-11T10:02:27.666Z,80489.16
2024-01-11T10:04:09.511Z,80482.75
2024-01-11T10:05:51.096Z,80499.59
2024-01-11T10:07:32.672Z,80486.97
2024-01-11T10:09:14.016Z,80496.84
2024-01-11T10:10:55.357Z,80491.09
2024-01-11T10:12:36.830Z,80492.84
2024-01-11T10:14:18.970Z,80488.84
2024-01-11T10:16:00.463Z,80478.72
2024-01-11T10:17:42.080Z,80481.59
2024-01-11T10:19:23.749Z,80485.69
2024-01-11T10:21:05.344Z,80475.81
2024-01-11T10:22:46.762Z,80474.50
2024-01-11T10:24:28.108Z,80474.25
2024-01-11T10:26:09.599Z,80486.03
2024-01-11T10:27:50.996Z,80479.44
2024-01-11T10:29:32.398Z,80485.00
2024-01-11T10:31:13.810Z,80474.22
2024-01-11T10:32:55.236Z,80467.53
2024-01-11T10:34:36.633Z,80462.75
2024-01-11T10:36:18.228Z,80470.19
2024-01-11T10:37:59.754Z,80464.19
2024-01-11T10:39:41.106Z,80459.19
2024-01-11T10:41:22.520Z,80453.19
2024-01-11T10:43:03.958Z,80458.97
2024-01-11T10:44:45.398Z,80466.59
2024-01-11T10:46:26.845Z,80463.84
2024-01-11T10:48:08.446Z,80471.53
2024-01-11T10:49:49.911Z,80482.94
2024-01-11T10:51:31.874Z,80470.31
2024-01-11T10:53:13.311Z,80469.88
2024-01-11T10:54:54.717Z,80469.22
2024-01-11T10:56:36.163Z,80468.09
2024-01-11T10:58:18.147Z,80463.78
2024-01-11T10:59:59.521Z,80455.38
2024-01-11T11:01:40.911Z,80454.09
2024-01-11T11:03:22.386Z,80446.66
2024-01-11T11:05:03.889Z,80446.19
2024-01-11T11:06:45.393Z,80448.63
2024-01-11T11:08:26.982Z,80455.00
2024-01-11T11:10:08.326Z,80451.19
2024-01-11T11:11:49.757Z,80443.81
2024-01-11T11:13:31.206Z,80445.94
2024-01-11T11:15:12.657Z,80443.72
2024-01-11T11:16:54.322Z,80443.81
2024-01-11T11:18:35.810Z,80452.63
2024-01-11T11:20:17.434Z,80462.00
2024-01-11T11:21:58.858Z,80463.41
2024-01-11T11:23:40.342Z,80450.00
2024-01-11T11:25:21.786Z,80452.53
2024-01-11T11:27:03.152Z,80450.75
2024-01-11T11:28:44.541Z,80452.88
2024-01-11T11:30:25.985Z,80457.00
2024-01-11T11:32:07.350Z,80478.22
2024-01-11T11:33:48.872Z,80476.47
2024-01-11T11:35:30.409Z,80468.31
2024-01-11T11:37:11.919Z,80463.50
2024-01-11T11:38:53.341Z,80463.13
2024-01-11T11:40:34.786Z,80453.22
2024-01-11T11:42:16.163Z,80452.56
2024-01-11T11:43:57.624Z,80449.44
2024-01-11T11:45:41.644Z,80453.09
2024-01-11T11:47:23.082Z,80446.81
2024-01-11T11:49:04.858Z,80433.22
2024-01-11T11:50:46.496Z,80449.16
2024-01-11T11:52:27.908Z,80433.66
2024-01-11T11:54:09.358Z,80433.41
2024-01-11T11:55:50.699Z,80435.03
2024-01-11T11:57:32.175Z,80438.63
2024-01-11T11:59:13.608Z,80443.44
2024-01-11T12:00:55.131Z,80447.50
2024-01-11T12:02:36.578Z,80440.28
2024-01-11T12:04:18.049Z,80440.94
2024-01-11T12:05:59.668Z,80447.06
2024-01-11T12:07:41.060Z,80441.78
2024-01-11T12:09:22.454Z,80436.19
2024-01-11T12:11:03.930Z,80432.91
2024-01-11T12:12:45.574Z,80432.81
2024-01-11T12:14:28.457Z,80426.13
2024-01-11T12:16:10.034Z,80429.56
2024-01-11T12:17:51.492Z,80434.66
2024-01-11T12:19:33.149Z,80426.53
2024-01-11T12:21:14.625Z,80428.78
2024-01-11T12:22:55.999Z,80424.31
2024-01-11T12:24:37.330Z,80418.84
2024-01-11T12:26:18.953Z,80419.34
2024-01-11T12:28:03.318Z,80414.06
2024-01-11T12:29:52.767Z,80418.47
2024-01-11T12:31:38.159Z,80423.75
2024-01-11T12:33:19.681Z,80417.16
2024-01-11T12:35:01.261Z,80423.53
2024-01-11T12:36:42.834Z,80424.72
2024-01-11T12:38:24.223Z,80417.34
2024-01-11T12:40:05.663Z,80427.72
2024-01-11T12:41:47.080Z,80420.84
2024-01-11T12:43:28.545Z,80425.38
2024-01-11T12:45:10.031Z,80417.25
2024-01-11T12:46:51.460Z,80412.19
2024-01-11T12:48:32.993Z,80415.25
2024-01-11T12:50:14.652Z,80410.66
2024-01-11T12:51:56.097Z,80414.31
2024-01-11T12:53:37.515Z,80415.09
2024-01-11T12:55:18.912Z,80416.38
2024-01-11T12:57:00.511Z,80426.44
2024-01-11T12:58:41.912Z,80427.09
2024-01-11T13:00:23.389Z,80432.69
2024-01-11T13:02:05.044Z,80436.28
2024-01-11T13:03:47.144Z,80441.25
2024-01-11T13:05:28.909Z,80434.38
2024-01-11T13:07:10.415Z,80441.56
2024-01-11T13:08:51.857Z,80441.38
2024-01-11T13:10:33.314Z,80434.63
2024-01-11T13:12:14.782Z,80442.41
2024-01-11T13:13:56.139Z,80448.03
2024-01-11T13:15:37.570Z,80448.22
2024-01-11T13:17:19.031Z,80448.97
2024-01-11T13:19:00.493Z,80448.47
2024-01-11T13:20:41.971Z,80443.84
2024-01-11T13:22:23.821Z,80448.53
2024-01-11T13:24:05.170Z,80449.72
2024-01-11T13:25:46.769Z,80445.16
2024-01-11T13:27:28.785Z,80444.41
2024-01-11T13:29:10.275Z,80441.81
2024-01-11T13:30:51.693Z,80448.09
2024-01-11T13:32:33.143Z,80447.16
2024-01-11T13:34:14.522Z,80447.69
2024-01-11T13:35:55.950Z,80449.91
2024-01-11T13:37:37.405Z,80448.69
2024-01-11T13:39:18.734Z,80450.16
2024-01-11T13:41:00.087Z,80452.53
2024-01-11T13:42:41.445Z,80449.03
2024-01-11T13:44:25.106Z,80447.91
2024-01-11T13:46:07.143Z,80443.53
2024-01-11T13:47:48.634Z,80442.28
2024-01-11T13:49:30.057Z,80445.06
2024-01-11T13:51:11.603Z,80437.75
2024-01-11T13:52:52.999Z,80440.28
2024-01-11T13:54:34.426Z,80446.63
2024-01-11T13:56:15.825Z,80446.31
2024-01-11T13:57:57.245Z,80431.78
2024-01-11T13:59:38.664Z,80444.09
2024-01-11T14:01:20.670Z,80442.31
2024-01-11T14:03:02.836Z,80442.97
2024-01-11T14:04:45.148Z,80442.59
2024-01-11T14:06:27.745Z,80450.88
2024-01-11T14:08:09.252Z,80448.56
2024-01-11T14:09:50.628Z,80449.22
2024-01-11T14:11:32.024Z,80457.56
2024-01-11T14:13:13.511Z,80464.47
2024-01-11T14:14:54.963Z,80472.97
2024-01-11T14:16:36.330Z,80471.81
2024-01-11T14:18:17.884Z,80468.56
2024-01-11T14:19:59.484Z,80474.25
2024-01-11T14:21:40.876Z,80473.00
2024-01-11T14:23:22.329Z,80472.31
2024-01-11T14:25:03.805Z,80468.84
2024-01-11T14:26:45.268Z,80480.41
2024-01-11T14:28:27.458Z,80478.66
2024-01-11T14:30:09.073Z,80485.69
2024-01-11T14:31:50.434Z,80487.03
2024-01-11T14:33:31.934Z,80481.34
2024-01-11T14:35:13.770Z,80480.34
2024-01-11T14:36:55.340Z,80474.03
2024-01-11T14:38:36.824Z,80488.69
2024-01-11T14:40:18.310Z,80483.56
2024-01-11T14:42:00.234Z,80477.34
2024-01-11T14:43:41.823Z,80481.69
2024-01-11T14:45:23.215Z,80481.03
2024-01-11T14:47:04.547Z,80473.03
2024-01-11T14:48:46.099Z,80476.78
2024-01-11T14:50:27.659Z,80475.41
2024-01-11T14:52:09.008Z,80470.88
2024-01-11T14:53:50.357Z,80470.34
2024-01-11T14:55:31.778Z,80469.84
2024-01-11T14:57:13.144Z,80473.03
2024-01-11T14:58:55.190Z,80472.34
2024-01-11T15:00:36.888Z,80471.78
2024-01-11T15:02:18.312Z,80482.03
2024-01-11T15:03:59.705Z,80474.56
2024-01-11T15:05:41.237Z,80473.75
2024-01-11T15:07:22.728Z,80485.69
2024-01-11T15:09:04.096Z,80492.25
2024-01-11T15:10:46.533Z,80478.13
2024-01-11T15:12:28.029Z,80482.94
2024-01-11T15:14:09.989Z,80476.16
2024-01-11T15:15:51.586Z,80476.03
2024-01-11T15:17:33.259Z,80472.97
2024-01-11T15:19:14.887Z,80478.00
2024-01-11T15:20:56.373Z,80476.81
2024-01-11T15:22:37.758Z,80477.06
2024-01-11T15:24:19.109Z,80478.31
2024-01-11T15:26:00.485Z,80492.31
2024-01-11T15:27:41.891Z,80489.16
2024-01-11T15:29:23.385Z,80498.56
2024-01-11T15:31:05.116Z,80495.56
2024-01-11T15:32:46.976Z,80506.47
2024-01-11T15:34:28.441Z,80508.91
2024-01-11T15:36:10.142Z,80505.94
2024-01-11T15:37:51.485Z,80510.25
2024-01-11T15:39:34.971Z,80510.13
2024-01-11T15:41:16.631Z,80519.16
2024-01-11T15:42:57.996Z,80513.16
2024-01-11T15:44:39.380Z,80526.06
2024-01-11T15:46:20.905Z,80521.47
2024-01-11T15:48:02.377Z,80523.13
2024-01-11T15:49:43.929Z,80518.81
2024-01-11T15:51:25.424Z,80520.50
2024-01-11T15:53:06.829Z,80524.22
2024-01-11T15:54:48.244Z,80518.19
2024-01-11T15:56:29.676Z,80522.56
2024-01-11T15:58:11.076Z,80524.28
2024-01-11T15:59:52.500Z,80519.31
2024-01-11T16:01:34.018Z,80517.28
2024-01-11T16:03:15.636Z,80518.25
2024-01-11T16:04:57.039Z,80517.84
2024-01-11T16:06:38.480Z,80515.25
2024-01-11T16:08:19.900Z,80518.50
2024-01-11T16:10:01.289Z,80515.06
2024-01-11T16:11:42.969Z,80512.72
2024-01-11T16:13:24.559Z,80511.25
2024-01-11T16:15:06.127Z,80513.56
2024-01-11T16:16:47.646Z,80513.09
2024-01-11T16:18:29.178Z,80515.81
2024-01-11T16:20:10.703Z,80510.16
2024-01-11T16:21:52.072Z,80518.03
2024-01-11T16:23:33.473Z,80508.50
2024-01-11T16:25:15.588Z,80506.53
2024-01-11T16:26:57.231Z,80512.47
2024-01-11T16:28:38.608Z,80516.78
2024-01-11T16:30:19.975Z,80519.28
2024-01-11T16:32:01.405Z,80518.38
2024-01-11T16:33:42.771Z,80526.84
2024-01-11T16:35:24.446Z,80518.72
2024-01-11T16:37:06.454Z,80526.44
2024-01-11T16:38:47.914Z,80512.31
2024-01-11T16:40:29.662Z,80519.47
2024-01-11T16:42:11.332Z,80522.91
2024-01-11T16:43:52.781Z,80526.72
2024-01-11T16:45:34.165Z,80534.28
2024-01-11T16:47:15.773Z,80536.19
2024-01-11T16:48:57.279Z,80546.28
2024-01-11T16:50:38.742Z,80547.19
2024-01-11T16:52:20.200Z,80540.56
2024-01-11T16:54:01.546Z,80547.31
2024-01-11T16:55:42.896Z,80546.47
2024-01-11T16:57:24.916Z,80543.72
2024-01-11T16:59:06.585Z,80541.53
2024-01-11T17:00:48.087Z,80539.69
2024-01-11T17:02:29.664Z,80545.69
2024-01-11T17:04:11.438Z,80552.66
2024-01-11T17:05:52.969Z,80538.06
2024-01-11T17:07:34.380Z,80542.38
2024-01-11T17:09:15.715Z,80536.03
2024-01-11T17:10:57.094Z,80544.91
2024-01-11T17:12:38.483Z,80539.88
2024-01-11T17:14:19.910Z,80529.31
2024-01-11T17:16:01.396Z,80534.97
2024-01-11T17:17:42.877Z,80530.50
2024-01-11T17:19:24.237Z,80535.16
2024-01-11T17:21:05.611Z,80523.50
2024-01-11T17:22:47.031Z,80532.16
2024-01-11T17:24:29.662Z,80529.03
2024-01-11T17:26:11.060Z,80536.59
2024-01-11T17:27:52.433Z,80538.84
2024-01-11T17:29:33.854Z,80535.81
2024-01-11T17:31:15.249Z,80530.69
2024-01-11T17:32:56.756Z,80524.50
2024-01-11T17:34:38.380Z,80519.50
2024-01-11T17:36:19.878Z,80528.38
2024-01-11T17:38:01.222Z,80523.16
2024-01-11T17:39:42.560Z,80530.50
2024-01-11T17:41:23.933Z,80529.41
2024-01-11T17:43:05.356Z,80532.72
2024-01-11T17:44:46.789Z,80528.81
2024-01-11T17:46:29.238Z,80532.34
2024-01-11T17:48:11.084Z,80527.47
2024-01-11T17:49:52.619Z,80523.41
2024-01-11T17:51:34.022Z,80526.63
2024-01-11T17:53:16.034Z,80535.94
2024-01-11T17:54:57.737Z,80525.81
2024-01-11T17:56:39.128Z,80531.06
2024-01-11T17:58:21.537Z,80532.50
2024-01-11T18:00:03.680Z,80536.50
2024-01-11T18:01:45.517Z,80539.88
2024-01-11T18:03:26.864Z,80528.50
2024-01-11T18:05:08.782Z,80532.28
2024-01-11T18:06:50.919Z,80535.28
2024-01-11T18:08:32.578Z,80538.06
2024-01-11T18:10:13.932Z,80534.81
2024-01-11T18:11:55.381Z,80530.59
2024-01-11T18:13:36.755Z,80529.16
2024-01-11T18:15:18.102Z,80531.50
2024-01-11T18:16:59.457Z,80538.28
2024-01-11T18:18:40.867Z,80542.19
2024-01-11T18:20:22.410Z,80539.88
2024-01-11T18:22:05.181Z,80538.63
2024-01-11T18:23:46.697Z,80540.94
2024-01-11T18:25:28.209Z,80546.28
2024-01-11T18:27:09.665Z,80545.63
2024-01-11T18:28:51.566Z,80544.63
2024-01-11T18:30:33.246Z,80542.63
2024-01-11T18:32:14.811Z,80545.53
2024-01-11T18:33:56.275Z,80547.50
2024-01-11T18:35:37.812Z,80545.97
2024-01-11T18:37:19.220Z,80539.97
2024-01-11T18:39:00.662Z,80551.84
2024-01-11T18:40:42.061Z,80555.06
2024-01-11T18:42:23.403Z,80548.50
2024-01-11T18:44:05.639Z,80552.84
2024-01-11T18:45:48.817Z,80557.13
2024-01-11T18:47:31.761Z,80555.97
2024-01-11T18:49:13.302Z,80567.09
2024-01-11T18:50:54.768Z,80569.72
2024-01-11T18:52:36.129Z,80578.69
2024-01-11T18:54:17.486Z,80583.97
2024-01-11T18:55:58.922Z,80583.97
2024-01-11T18:57:40.820Z,80581.03
2024-01-11T18:59:22.495Z,80573.06
2024-01-11T19:01:04.125Z,80570.03
2024-01-11T19:02:45.912Z,80575.94
2024-01-11T19:04:27.392Z,80581.22
2024-01-11T19:06:09.175Z,80577.13
2024-01-11T19:07:50.802Z,80574.75
2024-01-11T19:09:32.258Z,80576.41
2024-01-11T19:11:15.274Z,80583.47
2024-01-11T19:12:56.985Z,80579.44
2024-01-11T19:14:38.378Z,80588.06
2024-01-11T19:16:19.828Z,80588.59
2024-01-11T19:18:01.369Z,80590.38
2024-01-11T19:19:43.023Z,80593.06
2024-01-11T19:21:25.085Z,80596.13
2024-01-11T19:23:06.727Z,80595.63
2024-01-11T19:24:48.221Z,80593.66
2024-01-11T19:26:29.608Z,80588.59
2024-01-11T19:28:10.994Z,80594.47
2024-01-11T19:29:52.703Z,80587.50
2024-01-11T19:31:34.145Z,80597.84
2024-01-11T19:33:15.775Z,80585.63
2024-01-11T19:34:57.470Z,80590.19
2024-01-11T19:36:39.496Z,80584.13
2024-01-11T19:38:21.072Z,80590.00
2024-01-11T19:40:02.470Z,80587.50
2024-01-11T19:41:43.850Z,80585.41
2024-01-11T19:43:25.524Z,80589.44
2024-01-11T19:45:07.058Z,80583.94
2024-01-11T19:46:48.424Z,80586.25
2024-01-11T19:48:29.930Z,80586.16
2024-01-11T19:50:11.676Z,80589.03
2024-01-11T19:51:53.165Z,80579.91
2024-01-11T19:53:34.709Z,80586.25